Megan T Miller — WCW9003 — position and weather

sailwx.info

Track history (hours):
 
Tides and Currents Weather Stations Pressure Air Temp Water Temp Dewpoint Dewpoint Depression Visibility Wind Speed Wind Dir Waves Ship Positions

Megan T Miller

Owner: MILLER MARINE SERVICES INC, PORT JEFFERSON, NY. More information available from US FCC via Universal Licensing System and Coast Guard Vessel Documentation Center.

Last reported at 2017-May-11 23:50 UTC. Time now 2017-May-26 16:36 UTC.
Position N 40°50' W 073°47'.
Warning: this ship's position is 14 days out of date.

Length 18 m; draft 3 m.

MMSI: 338104509.

Date/timePositionNaut miles runAvg speedWind from/ knotsBaromVisibWave heightAir tempDewpointWater temp
2017-May-11 23:50N 40°50' W 073°47'3 8.3
2017-May-11 23:30N 40°48' W 073°50'5 8.9
2017-May-11 22:59N 40°47' W 073°56'510.8
2017-May-11 22:31N 40°42' W 073°60'5 9.7
2017-May-11 22:00N 40°38' W 074°03'5 8.9
2017-May-11 21:30N 40°34' W 074°02'46 8.2
2017-May-11 15:49N 39°47' W 074°01'4 9.0
2017-May-11 15:23N 39°44' W 074°03'3 9.1
2017-May-11 15:00N 39°41' W 074°04'34 7.4
2017-May-11 10:22N 39°13' W 074°30'3 9.3
2017-May-11 10:00N 39°10' W 074°33'5 9.4
2017-May-11 09:31N 39°05' W 074°35'5 9.3
2017-May-11 09:00N 39°01' W 074°38'5 9.1
2017-May-11 08:29N 38°57' W 074°41'6 9.1
2017-May-11 07:50N 38°52' W 074°45'6 9.2
2017-May-11 07:09N 38°47' W 074°50'133 8.3
2017-May-10 15:05N 36°55' W 076°20'2 6.6
2017-May-10 14:46N 36°53' W 076°20'5 6.3
2017-May-10 14:00N 36°49' W 076°17'2 4.0
2017-May-10 13:31N 36°47' W 076°18'0 0.0
2017-May-10 13:00N 36°47' W 076°18'0 0.0
2017-May-10 12:31N 36°47' W 076°18'0 0.0
2017-May-10 12:01N 36°47' W 076°18'0 0.0
2017-May-10 11:31N 36°47' W 076°18'0 0.0
2017-May-10 11:01N 36°47' W 076°18'0 0.0
2017-May-10 10:31N 36°47' W 076°18'0 0.0
2017-May-10 10:01N 36°47' W 076°18'0 0.0
2017-May-10 09:31N 36°47' W 076°18'0 0.0
2017-May-10 09:01N 36°47' W 076°18'0 0.0
2017-May-10 08:31N 36°47' W 076°18'0 0.0
2017-May-10 08:00N 36°47' W 076°18'0 0.0
2017-May-10 07:30N 36°47' W 076°18'0 0.0
2017-May-10 07:01N 36°47' W 076°18'0 0.0
2017-May-10 06:31N 36°47' W 076°18'0 0.0
2017-May-10 06:00N 36°47' W 076°18'0 0.0
2017-May-10 05:30N 36°47' W 076°18'0 0.0
2017-May-10 05:01N 36°47' W 076°18'0 0.0
2017-May-10 04:31N 36°47' W 076°18'0 0.0
2017-May-10 04:00N 36°47' W 076°18'0 0.0
2017-May-10 03:31N 36°47' W 076°18'0 0.0
2017-May-10 03:01N 36°47' W 076°18'0 0.0
2017-May-10 02:30N 36°47' W 076°18'1 1.9
2017-May-10 02:01N 36°48' W 076°18'3 5.7
2017-May-10 01:30N 36°51' W 076°18'12 5.0
2017-May-09 23:06N 36°58' W 076°06'110.3
2017-May-09 23:00N 36°58' W 076°05'5 9.5
2017-May-09 22:27N 36°56' W 075°59'4 8.1
2017-May-09 22:00N 36°54' W 075°55'0 0.0
2017-May-09 01:49N 36°53' W 075°56'20 6.2
2017-May-08 22:36N 36°56' W 076°20'2 6.2
2017-May-08 22:15N 36°53' W 076°20'2 6.0
2017-May-08 21:58N 36°52' W 076°19'3 6.1
2017-May-08 21:31N 36°49' W 076°17'3 5.1
2017-May-08 21:00N 36°47' W 076°18'0 0.0
2017-May-08 20:31N 36°47' W 076°18'0 0.0
2017-May-08 20:01N 36°47' W 076°18'0 0.0
2017-May-08 19:31N 36°47' W 076°18'0 0.0
2017-May-08 19:01N 36°47' W 076°18'0 0.0
2017-May-08 18:31N 36°47' W 076°18'0 0.0
2017-May-08 18:01N 36°47' W 076°18'0 0.0
2017-May-08 17:30N 36°47' W 076°18'0 0.0
2017-May-08 17:00N 36°47' W 076°18'0 0.0
2017-May-08 16:31N 36°47' W 076°18'0 0.0
2017-May-08 16:00N 36°47' W 076°18'0 0.0
2017-May-08 15:30N 36°47' W 076°18'0 0.0
2017-May-08 15:01N 36°47' W 076°18'0 0.0
2017-May-08 14:31N 36°47' W 076°18'0 0.0
2017-May-08 13:30N 36°47' W 076°18'0 0.0
2017-May-08 13:01N 36°47' W 076°18'0 0.0
2017-May-08 12:30N 36°47' W 076°18'0 0.0
2017-May-08 12:01N 36°47' W 076°18'0 0.0
2017-May-08 11:31N 36°47' W 076°18'0 0.0
2017-May-08 11:01N 36°47' W 076°18'0 0.0
2017-May-08 10:31N 36°47' W 076°18'0 0.0
2017-May-08 10:01N 36°47' W 076°18'0 0.0
2017-May-08 09:31N 36°47' W 076°18'0 0.0
2017-May-08 09:01N 36°47' W 076°18'0 0.0
2017-May-08 08:31N 36°47' W 076°18'0 0.0
2017-May-08 08:00N 36°47' W 076°18'0 0.0
2017-May-08 07:31N 36°47' W 076°18'0 0.0
2017-May-08 07:01N 36°47' W 076°18'0 0.0
2017-May-08 06:30N 36°47' W 076°18'0 0.0
2017-May-08 06:01N 36°47' W 076°18'3 5.1
2017-May-08 05:30N 36°49' W 076°17'4 7.2
2017-May-08 05:00N 36°52' W 076°20'245 8.1
2017-May-06 22:44N 40°31' W 074°00'3 8.3
2017-May-06 22:23N 40°34' W 074°02'3 8.4
2017-May-06 22:01N 40°37' W 074°03'4 7.8
2017-May-06 21:31N 40°41' W 074°01'3 6.4
2017-May-06 21:01N 40°43' W 073°58'3 6.0
2017-May-06 20:27N 40°46' W 073°57'  
Track history (hours):
 
Tides and Currents Weather Stations Pressure Air Temp Water Temp Dewpoint Dewpoint Depression Visibility Wind Speed Wind Dir Waves Ship Positions

Megan T Miller

Owner: MILLER MARINE SERVICES INC, PORT JEFFERSON, NY. More information available from US FCC via Universal Licensing System and Coast Guard Vessel Documentation Center.

Last reported at 2017-May-11 23:50 UTC. Time now 2017-May-26 16:36 UTC.
Position N 40°50' W 073°47'.
Warning: this ship's position is 14 days out of date.

Length 18 m; draft 3 m.

MMSI: 338104509.

Date/timePositionNaut miles runAvg speedWind from/ knotsBaromVisibWave heightAir tempDewpointWater temp
2017-May-11 23:50N 40°50' W 073°47'3 8.3
2017-May-11 23:30N 40°48' W 073°50'5 8.9
2017-May-11 22:59N 40°47' W 073°56'510.8
2017-May-11 22:31N 40°42' W 073°60'5 9.7
2017-May-11 22:00N 40°38' W 074°03'5 8.9
2017-May-11 21:30N 40°34' W 074°02'46 8.2
2017-May-11 15:49N 39°47' W 074°01'4 9.0
2017-May-11 15:23N 39°44' W 074°03'3 9.1
2017-May-11 15:00N 39°41' W 074°04'34 7.4
2017-May-11 10:22N 39°13' W 074°30'3 9.3
2017-May-11 10:00N 39°10' W 074°33'5 9.4
2017-May-11 09:31N 39°05' W 074°35'5 9.3
2017-May-11 09:00N 39°01' W 074°38'5 9.1
2017-May-11 08:29N 38°57' W 074°41'6 9.1
2017-May-11 07:50N 38°52' W 074°45'6 9.2
2017-May-11 07:09N 38°47' W 074°50'133 8.3
2017-May-10 15:05N 36°55' W 076°20'2 6.6
2017-May-10 14:46N 36°53' W 076°20'5 6.3
2017-May-10 14:00N 36°49' W 076°17'2 4.0
2017-May-10 13:31N 36°47' W 076°18'0 0.0
2017-May-10 13:00N 36°47' W 076°18'0 0.0
2017-May-10 12:31N 36°47' W 076°18'0 0.0
2017-May-10 12:01N 36°47' W 076°18'0 0.0
2017-May-10 11:31N 36°47' W 076°18'0 0.0
2017-May-10 11:01N 36°47' W 076°18'0 0.0
2017-May-10 10:31N 36°47' W 076°18'0 0.0
2017-May-10 10:01N 36°47' W 076°18'0 0.0
2017-May-10 09:31N 36°47' W 076°18'0 0.0
2017-May-10 09:01N 36°47' W 076°18'0 0.0
2017-May-10 08:31N 36°47' W 076°18'0 0.0
2017-May-10 08:00N 36°47' W 076°18'0 0.0
2017-May-10 07:30N 36°47' W 076°18'0 0.0
2017-May-10 07:01N 36°47' W 076°18'0 0.0
2017-May-10 06:31N 36°47' W 076°18'0 0.0
2017-May-10 06:00N 36°47' W 076°18'0 0.0
2017-May-10 05:30N 36°47' W 076°18'0 0.0
2017-May-10 05:01N 36°47' W 076°18'0 0.0
2017-May-10 04:31N 36°47' W 076°18'0 0.0
2017-May-10 04:00N 36°47' W 076°18'0 0.0
2017-May-10 03:31N 36°47' W 076°18'0 0.0
2017-May-10 03:01N 36°47' W 076°18'0 0.0
2017-May-10 02:30N 36°47' W 076°18'1 1.9
2017-May-10 02:01N 36°48' W 076°18'3 5.7
2017-May-10 01:30N 36°51' W 076°18'12 5.0
2017-May-09 23:06N 36°58' W 076°06'110.3
2017-May-09 23:00N 36°58' W 076°05'5 9.5
2017-May-09 22:27N 36°56' W 075°59'4 8.1
2017-May-09 22:00N 36°54' W 075°55'0 0.0
2017-May-09 01:49N 36°53' W 075°56'20 6.2
2017-May-08 22:36N 36°56' W 076°20'2 6.2
2017-May-08 22:15N 36°53' W 076°20'2 6.0
2017-May-08 21:58N 36°52' W 076°19'3 6.1
2017-May-08 21:31N 36°49' W 076°17'3 5.1
2017-May-08 21:00N 36°47' W 076°18'0 0.0
2017-May-08 20:31N 36°47' W 076°18'0 0.0
2017-May-08 20:01N 36°47' W 076°18'0 0.0
2017-May-08 19:31N 36°47' W 076°18'0 0.0
2017-May-08 19:01N 36°47' W 076°18'0 0.0
2017-May-08 18:31N 36°47' W 076°18'0 0.0
2017-May-08 18:01N 36°47' W 076°18'0 0.0
2017-May-08 17:30N 36°47' W 076°18'0 0.0
2017-May-08 17:00N 36°47' W 076°18'0 0.0
2017-May-08 16:31N 36°47' W 076°18'0 0.0
2017-May-08 16:00N 36°47' W 076°18'0 0.0
2017-May-08 15:30N 36°47' W 076°18'0 0.0
2017-May-08 15:01N 36°47' W 076°18'0 0.0
2017-May-08 14:31N 36°47' W 076°18'0 0.0
2017-May-08 13:30N 36°47' W 076°18'0 0.0
2017-May-08 13:01N 36°47' W 076°18'0 0.0
2017-May-08 12:30N 36°47' W 076°18'0 0.0
2017-May-08 12:01N 36°47' W 076°18'0 0.0
2017-May-08 11:31N 36°47' W 076°18'0 0.0
2017-May-08 11:01N 36°47' W 076°18'0 0.0
2017-May-08 10:31N 36°47' W 076°18'0 0.0
2017-May-08 10:01N 36°47' W 076°18'0 0.0
2017-May-08 09:31N 36°47' W 076°18'0 0.0
2017-May-08 09:01N 36°47' W 076°18'0 0.0
2017-May-08 08:31N 36°47' W 076°18'0 0.0
2017-May-08 08:00N 36°47' W 076°18'0 0.0
2017-May-08 07:31N 36°47' W 076°18'0 0.0
2017-May-08 07:01N 36°47' W 076°18'0 0.0
2017-May-08 06:30N 36°47' W 076°18'0 0.0
2017-May-08 06:01N 36°47' W 076°18'3 5.1
2017-May-08 05:30N 36°49' W 076°17'4 7.2
2017-May-08 05:00N 36°52' W 076°20'245 8.1
2017-May-06 22:44N 40°31' W 074°00'3 8.3
2017-May-06 22:23N 40°34' W 074°02'3 8.4
2017-May-06 22:01N 40°37' W 074°03'4 7.8
2017-May-06 21:31N 40°41' W 074°01'3 6.4
2017-May-06 21:01N 40°43' W 073°58'3 6.0
2017-May-06 20:27N 40°46' W 073°57'  

Dump ship's entire track history